Time;durP1;ratioP1;P1;durP2;ratioP2;P2;SDS_P1;SDS_P2;PMS_P1;PMS_P2;Temp;Humidity;BMP_temperature;BMP_pressure;BME280_temperature;BME280_humidity;BME280_pressure;Samples;Min_cycle;Max_cycle;Signal;HPM_P1;HPM_P2
2021/05/16 00:02:44;;;;;;;1.47;1.17;;;11.50;99.90;;;12.33;100.00;99121.31;5025438;28;20576;-60
2021/05/16 00:05:56;;;;;;;1.60;1.10;;;11.50;99.90;;;12.26;100.00;99121.25;5027142;28;20319;-60
2021/05/16 00:09:21;;;;;;;1.70;1.17;;;11.40;99.90;;;12.25;100.00;99114.22;5016350;28;20496;-60
2021/05/16 00:16:18;;;;;;;1.17;0.90;;;11.30;99.90;;;12.20;100.00;99108.66;5014884;28;20261;-60
2021/05/16 00:19:45;;;;;;;1.47;1.23;;;11.20;99.90;;;12.14;100.00;99118.28;5030191;28;20241;-58
2021/05/16 00:37:52;;;;;;;1.10;1.00;;;10.90;99.90;;;12.00;100.00;99121.91;4995129;28;20242;-60
2021/05/16 00:41:36;;;;;;;2.17;1.20;;;10.80;99.90;;;11.84;100.00;99124.88;5008652;28;20222;-60
2021/05/16 00:49:02;;;;;;;1.30;1.13;;;10.70;99.90;;;11.69;100.00;99124.13;4959997;28;20497;-59
2021/05/16 00:52:20;;;;;;;1.63;1.30;;;10.60;99.90;;;11.59;100.00;99116.41;4965918;28;20334;-60
2021/05/16 00:55:32;;;;;;;1.63;1.30;;;10.50;99.90;;;11.53;100.00;99111.81;5029364;28;20214;-60
2021/05/16 00:58:57;;;;;;;2.00;1.10;;;10.40;99.90;;;11.45;100.00;99111.94;5023494;28;21030;-58
2021/05/16 01:02:11;;;;;;;1.67;1.37;;;10.30;99.90;;;11.33;100.00;99103.59;5023533;28;20524;-60
2021/05/16 01:09:18;;;;;;;2.87;1.40;;;10.20;99.90;;;11.14;100.00;99105.06;5028879;28;20489;-60
2021/05/16 01:24:56;;;;;;;1.90;1.60;;;9.70;99.90;;;10.75;100.00;99118.00;4971910;28;20688;-60
2021/05/16 01:31:36;;;;;;;3.43;1.70;;;9.50;99.90;;;10.59;100.00;99118.22;5027675;28;20315;-60
2021/05/16 01:34:53;;;;;;;1.90;1.63;;;9.40;99.90;;;10.56;100.00;99119.41;5028161;28;20214;-60
2021/05/16 01:41:32;;;;;;;2.50;1.23;;;9.30;99.90;;;10.38;100.00;99119.81;5008993;28;20840;-60
2021/05/16 01:44:46;;;;;;;2.20;1.60;;;9.20;99.90;;;10.30;100.00;99113.72;5009424;28;20604;-60
2021/05/16 01:47:59;;;;;;;1.67;1.43;;;9.20;99.90;;;10.28;100.00;99145.13;5009067;28;20264;-60
2021/05/16 01:51:22;;;;;;;1.60;1.50;;;9.20;99.90;;;10.12;100.00;99154.16;5027116;28;21607;-60
2021/05/16 01:54:34;;;;;;;1.57;1.40;;;9.10;99.90;;;10.13;100.00;99147.81;5027923;28;20843;-60
2021/05/16 01:57:47;;;;;;;3.00;1.40;;;9.10;99.90;;;10.15;100.00;99152.94;5028916;28;20499;-60
2021/05/16 02:01:00;;;;;;;2.93;1.57;;;9.00;99.90;;;10.08;100.00;99142.16;5029897;28;20676;-60
2021/05/16 02:04:41;;;;;;;1.67;1.30;;;9.00;99.90;;;10.15;100.00;99155.59;5008647;28;20300;-60
2021/05/16 02:07:54;;;;;;;1.40;1.30;;;9.00;99.90;;;10.02;100.00;99151.72;5021802;28;20534;-59
2021/05/16 02:11:28;;;;;;;2.37;1.70;;;8.90;99.90;;;10.03;100.00;99153.38;5016295;28;20600;-59
2021/05/16 02:15:18;;;;;;;1.43;1.30;;;8.90;99.90;;;10.04;100.00;99156.88;5015144;28;20225;-60
2021/05/16 02:23:01;;;;;;;2.43;1.33;;;8.80;99.90;;;9.92;100.00;99156.50;5024513;28;20272;-59
2021/05/16 02:26:19;;;;;;;2.10;1.70;;;8.80;99.90;;;9.85;100.00;99162.75;4995015;28;20619;-59
2021/05/16 02:29:43;;;;;;;1.97;1.47;;;8.80;99.90;;;9.87;100.00;99158.91;5009039;28;20205;-60
2021/05/16 02:48:32;;;;;;;1.87;1.30;;;9.00;99.90;;;10.29;100.00;99155.66;4978935;28;20786;-60
2021/05/16 02:59:23;;;;;;;1.40;1.10;;;9.10;99.90;;;10.44;100.00;99163.69;4998213;28;20517;-60
2021/05/16 03:02:35;;;;;;;3.40;1.20;;;9.20;99.90;;;10.40;100.00;99157.03;5043132;28;20229;-60
2021/05/16 03:13:36;;;;;;;2.50;1.03;;;9.30;99.90;;;10.65;100.00;99154.91;4924921;28;21052;-61
2021/05/16 03:16:58;;;;;;;2.60;1.20;;;9.30;99.90;;;10.67;100.00;99153.72;5028328;28;20603;-60
2021/05/16 03:20:29;;;;;;;2.17;1.10;;;9.40;99.90;;;10.72;100.00;99161.19;5030264;28;20222;-60
2021/05/16 03:23:40;;;;;;;0.87;0.87;;;9.50;99.90;;;10.74;100.00;99161.84;5011747;28;20339;-60
2021/05/16 03:27:33;;;;;;;2.17;1.20;;;9.50;99.90;;;10.72;100.00;99161.19;5030439;28;20350;-58
2021/05/16 03:35:00;;;;;;;1.00;0.93;;;9.60;99.90;;;10.94;100.00;99159.41;4967483;28;20234;-59
2021/05/16 03:45:20;;;;;;;2.67;1.37;;;9.70;99.90;;;11.07;100.00;99167.59;5029696;28;20723;-61
2021/05/16 03:48:37;;;;;;;1.20;1.10;;;9.70;99.90;;;11.06;100.00;99169.44;5029881;28;20225;-60
2021/05/16 03:51:49;;;;;;;2.17;1.20;;;9.70;99.90;;;11.11;100.00;99166.19;5029642;28;20411;-61
2021/05/16 03:55:25;;;;;;;1.50;1.40;;;9.70;99.90;;;11.07;100.00;99167.59;5029319;28;20311;-61
2021/05/16 04:02:18;;;;;;;1.37;1.20;;;9.80;99.90;;;11.22;100.00;99172.91;5029737;28;20592;-61
2021/05/16 04:06:04;;;;;;;2.47;1.20;;;9.80;99.90;;;11.24;100.00;99168.19;5029168;28;20890;-61
2021/05/16 04:16:31;;;;;;;1.80;1.10;;;9.90;99.90;;;11.34;100.00;99182.94;4982882;28;20712;-60
2021/05/16 04:23:51;;;;;;;1.20;1.17;;;10.00;99.90;;;11.40;100.00;99175.97;4945610;28;20345;-61
2021/05/16 04:27:32;;;;;;;1.60;1.13;;;10.00;99.90;;;11.50;100.00;99176.47;4954222;28;20998;-61
2021/05/16 04:30:45;;;;;;;2.30;1.57;;;10.10;99.90;;;11.53;100.00;99182.28;4946358;28;20572;-61
2021/05/16 04:34:34;;;;;;;3.77;1.40;;;10.10;99.90;;;11.69;100.00;99181.22;4954220;28;20774;-61
2021/05/16 04:37:45;;;;;;;1.37;1.27;;;10.10;99.90;;;11.70;100.00;99182.03;4999698;28;20402;-61
2021/05/16 04:41:33;;;;;;;1.53;1.30;;;10.20;99.90;;;11.63;100.00;99191.84;5028523;28;20507;-61
2021/05/16 04:45:12;;;;;;;1.20;1.10;;;10.30;99.90;;;11.73;100.00;99187.84;4923308;28;20467;-61
2021/05/16 05:03:11;;;;;;;1.33;1.10;;;10.50;99.90;;;11.79;100.00;99188.94;5008687;28;20524;-59
2021/05/16 05:13:42;;;;;;;1.73;0.70;;;10.60;99.90;;;12.02;100.00;99191.41;5006849;28;20236;-61
2021/05/16 05:16:56;;;;;;;1.80;1.17;;;10.60;99.90;;;12.10;100.00;99194.81;5027481;28;20303;-61
2021/05/16 05:20:09;;;;;;;1.13;1.03;;;10.70;99.90;;;12.28;100.00;99198.84;5028088;28;21059;-61
2021/05/16 05:23:43;;;;;;;2.00;1.10;;;10.80;99.90;;;12.27;100.00;99195.31;5027751;28;20240;-61
2021/05/16 05:30:39;;;;;;;1.27;1.17;;;11.00;99.90;;;12.61;100.00;99196.38;5026217;28;20435;-60
2021/05/16 05:34:01;;;;;;;3.03;1.10;;;11.10;99.90;;;12.79;100.00;99192.13;5024529;28;20499;-60
2021/05/16 05:48:26;;;;;;;1.27;0.90;;;11.70;99.90;;;13.20;100.00;99191.31;5025175;28;20233;-60
2021/05/16 05:51:49;;;;;;;1.17;0.90;;;11.80;99.90;;;13.39;100.00;99190.53;5025527;28;20313;-61
2021/05/16 05:55:13;;;;;;;3.90;0.90;;;11.90;99.90;;;13.22;100.00;99191.94;5024229;28;20431;-61
2021/05/16 05:58:35;;;;;;;2.00;1.03;;;12.00;99.90;;;13.47;100.00;99189.53;5023399;28;20283;-61
2021/05/16 06:05:35;;;;;;;1.83;1.00;;;12.10;99.90;;;13.96;100.00;99183.81;4997599;28;20675;-61
2021/05/16 06:09:10;;;;;;;1.63;0.87;;;12.30;99.90;;;14.22;100.00;99188.34;5018437;28;20478;-60
2021/05/16 06:12:22;;;;;;;1.50;1.03;;;12.40;99.90;;;14.64;100.00;99179.81;5023744;28;20549;-60
2021/05/16 06:15:34;;;;;;;0.57;0.57;;;12.60;99.90;;;14.42;100.00;99172.22;5024527;28;20668;-59
2021/05/16 06:22:45;;;;;;;2.00;0.80;;;13.10;99.90;;;14.42;100.00;99177.59;4999853;28;20985;-60
2021/05/16 06:25:57;;;;;;;2.57;0.90;;;13.20;99.90;;;14.12;100.00;99186.06;5024258;28;20451;-60
2021/05/16 06:29:09;;;;;;;2.00;0.77;;;13.30;99.90;;;13.99;100.00;99194.13;5023886;28;20516;-60
2021/05/16 06:32:32;;;;;;;1.13;0.70;;;13.30;99.90;;;13.85;100.00;99200.53;4991774;28;20229;-60
2021/05/16 06:35:43;;;;;;;1.50;0.80;;;13.20;99.90;;;13.90;100.00;99193.53;5015278;28;20307;-60
2021/05/16 06:38:54;;;;;;;0.97;0.50;;;13.20;99.90;;;13.78;100.00;99192.47;5023936;28;21106;-60
2021/05/16 06:42:05;;;;;;;1.17;0.90;;;13.20;99.90;;;13.87;100.00;99190.41;5024708;28;20483;-61
2021/05/16 06:45:18;;;;;;;1.00;0.80;;;13.10;99.90;;;13.77;100.00;99198.06;5023610;28;20739;-60
2021/05/16 06:48:41;;;;;;;0.40;0.40;;;13.10;99.90;;;13.88;100.00;99205.50;4988108;28;20710;-61
2021/05/16 06:55:44;;;;;;;0.80;0.60;;;13.10;99.90;;;14.00;100.00;99199.31;5017551;28;20225;-60
2021/05/16 06:58:55;;;;;;;1.27;0.70;;;13.10;99.90;;;14.23;100.00;99204.28;5024642;28;20258;-59
2021/05/16 07:02:07;;;;;;;1.83;1.03;;;13.20;99.90;;;14.31;100.00;99198.69;5024269;28;20226;-60
2021/05/16 07:05:19;;;;;;;0.93;0.30;;;13.30;99.90;;;14.21;100.00;99203.69;5024420;28;21002;-60
2021/05/16 07:12:23;;;;;;;0.70;0.53;;;13.60;99.90;;;14.31;100.00;99196.00;5017632;28;20237;-61
2021/05/16 07:15:46;;;;;;;0.80;0.63;;;13.70;99.90;;;14.48;100.00;99198.28;5024645;28;20371;-60
2021/05/16 07:18:58;;;;;;;1.00;0.60;;;13.90;99.90;;;14.62;100.00;99199.91;5023905;28;20579;-60
2021/05/16 07:22:21;;;;;;;1.97;0.40;;;14.00;99.90;;;14.62;100.00;99191.84;5030693;28;20257;-59
2021/05/16 07:25:32;;;;;;;0.60;0.47;;;14.20;99.90;;;14.73;100.00;99194.69;5030683;28;20536;-60
2021/05/16 07:28:44;;;;;;;0.90;0.60;;;14.30;99.90;;;14.57;100.00;99187.09;5027408;28;20653;-59
2021/05/16 07:31:55;;;;;;;1.13;0.77;;;14.40;99.90;;;14.58;100.00;99188.75;5027052;28;20693;-58
2021/05/16 07:35:07;;;;;;;1.33;0.50;;;14.40;99.90;;;14.58;100.00;99191.44;5008627;28;20226;-60
2021/05/16 07:38:18;;;;;;;0.80;0.50;;;14.40;99.90;;;14.80;100.00;99180.41;5026762;28;20605;-60
2021/05/16 07:41:30;;;;;;;0.87;0.50;;;14.50;99.90;;;14.67;100.00;99183.97;5027504;28;20545;-59
2021/05/16 07:44:41;;;;;;;2.17;0.40;;;14.50;99.90;;;14.73;100.00;99185.78;5027005;28;20536;-60
2021/05/16 07:47:53;;;;;;;2.23;0.80;;;14.50;99.90;;;14.54;100.00;99186.69;5026905;28;20391;-60
2021/05/16 07:51:06;;;;;;;3.03;0.80;;;14.50;99.90;;;14.53;100.00;99191.25;5026783;28;20705;-60
2021/05/16 07:54:17;;;;;;;1.70;0.90;;;14.40;99.90;;;14.74;100.00;99190.97;5026376;28;20527;-60
2021/05/16 08:01:01;;;;;;;2.70;1.03;;;14.40;99.90;;;15.02;100.00;99189.84;5002607;28;21001;-60
2021/05/16 08:04:12;;;;;;;1.53;0.63;;;14.50;99.90;;;14.92;100.00;99198.38;5006055;28;21020;-60
2021/05/16 08:07:43;;;;;;;1.97;0.90;;;14.60;99.90;;;15.98;100.00;99185.16;5001782;28;20229;-60
2021/05/16 08:10:54;;;;;;;2.97;1.10;;;14.70;99.90;;;15.78;100.00;99189.88;5006853;28;20533;-61
2021/05/16 08:14:11;;;;;;;2.20;0.90;;;15.20;99.90;;;15.91;100.00;99187.09;5003839;28;20257;-60
2021/05/16 08:17:34;;;;;;;1.33;0.90;;;15.40;99.90;;;15.77;100.00;99183.66;4992077;28;20659;-61
2021/05/16 08:21:22;;;;;;;2.75;1.00;;;15.70;99.90;;;15.42;100.00;99182.41;5006573;28;20519;-60
2021/05/16 08:28:31;;;;;;;5.40;1.05;;;15.70;98.40;;;16.11;100.00;99195.84;4992919;28;20437;-60
2021/05/16 08:32:02;;;;;;;3.60;1.33;;;15.80;99.00;;;15.65;100.00;99200.75;5007527;28;20230;-57
2021/05/16 08:35:19;;;;;;;5.32;1.23;;;15.80;97.30;;;15.75;100.00;99190.31;5002148;28;20541;-58
2021/05/16 08:38:42;;;;;;;3.58;1.13;;;15.80;97.20;;;16.29;100.00;99186.16;5000150;28;20468;-61
2021/05/16 08:41:54;;;;;;;3.13;1.05;;;15.90;98.40;;;16.60;100.00;99177.13;5005874;28;20407;-60
2021/05/16 08:45:09;;;;;;;3.35;1.20;;;16.10;96.70;;;16.47;100.00;99178.06;4999059;28;20263;-60
2021/05/16 08:48:21;;;;;;;2.25;1.00;;;16.30;95.90;;;16.43;100.00;99193.09;5005629;28;20412;-60
2021/05/16 08:51:45;;;;;;;3.85;1.48;;;16.40;93.70;;;16.12;100.00;99185.88;5005477;28;20727;-60
2021/05/16 08:54:56;;;;;;;4.30;1.40;;;16.50;89.80;;;16.30;100.00;99194.03;5005489;28;20428;-60
2021/05/16 08:58:08;;;;;;;5.60;1.55;;;16.40;90.10;;;16.13;100.00;99193.75;5004925;28;20218;-61
2021/05/16 09:05:01;;;;;;;2.25;1.05;;;16.40;91.40;;;15.88;100.00;99203.72;4950349;28;20238;-60
2021/05/16 09:08:16;;;;;;;2.65;1.10;;;16.20;92.90;;;15.30;100.00;99195.75;5002624;28;20542;-60
2021/05/16 09:11:33;;;;;;;4.93;1.45;;;15.90;96.80;;;15.00;100.00;99213.47;5004938;28;20326;-60
2021/05/16 09:15:04;;;;;;;2.58;0.90;;;15.50;99.20;;;15.11;100.00;99207.41;5005693;28;20250;-60
2021/05/16 09:18:34;;;;;;;5.23;1.00;;;15.00;99.90;;;15.61;100.00;99197.66;5017167;28;20788;-60
2021/05/16 09:21:57;;;;;;;2.73;1.00;;;14.90;99.90;;;15.87;100.00;99202.06;5001495;28;20300;-60
2021/05/16 09:25:31;;;;;;;4.23;1.20;;;14.90;99.90;;;16.52;100.00;99203.38;4987229;28;20226;-60
2021/05/16 09:28:54;;;;;;;2.03;1.07;;;15.10;99.90;;;16.75;100.00;99202.75;5005285;28;20707;-60
2021/05/16 09:32:07;;;;;;;3.40;1.27;;;15.50;99.90;;;16.73;100.00;99202.16;4986624;28;20565;-58
2021/05/16 09:35:51;;;;;;;3.13;1.02;;;15.90;98.00;;;17.35;100.00;99202.03;5005479;28;20218;-60
2021/05/16 09:42:43;;;;;;;2.72;0.80;;;16.60;94.50;;;17.70;100.00;99194.09;4986209;28;20229;-60
2021/05/16 09:46:18;;;;;;;3.42;0.98;;;17.00;91.70;;;17.76;100.00;99191.28;4942780;28;20343;-60
2021/05/16 09:49:43;;;;;;;1.48;0.80;;;17.40;83.70;;;17.72;100.00;99190.09;4992984;28;20567;-60
2021/05/16 09:53:02;;;;;;;2.42;0.85;;;17.70;76.00;;;17.88;100.00;99191.31;5004783;28;20529;-60
2021/05/16 09:56:30;;;;;;;1.63;0.80;;;17.80;77.20;;;17.78;100.00;99191.06;5005132;28;20532;-60
2021/05/16 09:59:41;;;;;;;2.42;0.85;;;18.00;77.10;;;17.28;100.00;99188.63;5010788;28;20501;-60
2021/05/16 10:02:54;;;;;;;3.05;0.85;;;18.00;75.10;;;17.18;100.00;99178.31;5015552;28;20490;-60
2021/05/16 10:16:42;;;;;;;3.33;0.88;;;18.50;73.00;;;18.14;100.00;99173.84;5018218;28;20233;-59
2021/05/16 10:20:01;;;;;;;2.97;0.90;;;18.90;65.10;;;18.11;100.00;99169.72;5024126;28;20241;-60
2021/05/16 10:23:20;;;;;;;2.17;0.80;;;19.00;65.10;;;18.44;100.00;99176.41;5024278;28;20503;-60
2021/05/16 10:26:48;;;;;;;1.63;1.02;;;19.00;65.10;;;17.93;100.00;99169.78;5028708;28;20630;-60
2021/05/16 10:30:19;;;;;;;3.05;0.77;;;19.20;61.50;;;17.71;100.00;99172.22;5024408;28;20229;-59
2021/05/16 10:33:43;;;;;;;2.90;1.08;;;19.10;59.40;;;17.51;100.00;99177.91;5023161;28;20210;-59
2021/05/16 10:37:06;;;;;;;2.65;0.88;;;18.70;59.20;;;18.29;100.00;99168.78;5019498;28;20260;-60
2021/05/16 10:40:51;;;;;;;1.65;0.73;;;18.60;61.80;;;18.51;100.00;99169.84;5024425;28;20438;-60
2021/05/16 10:44:33;;;;;;;3.20;0.95;;;18.80;64.80;;;18.70;100.00;99165.13;5009437;28;21083;-61
2021/05/16 10:48:16;;;;;;;4.00;0.90;;;19.10;63.70;;;18.53;100.00;99167.72;4958304;28;20340;-60
2021/05/16 10:51:46;;;;;;;3.45;1.13;;;19.20;61.50;;;19.00;100.00;99163.06;5011166;28;20512;-60
2021/05/16 10:55:09;;;;;;;3.50;0.85;;;19.40;63.00;;;19.32;100.00;99165.31;5024842;28;21039;-60
2021/05/16 10:58:22;;;;;;;2.85;1.00;;;19.90;61.00;;;18.98;100.00;99172.50;5024928;28;20383;-59
2021/05/16 11:01:40;;;;;;;2.55;1.00;;;20.30;58.00;;;18.98;100.00;99161.66;5021488;28;20839;-59
2021/05/16 11:05:04;;;;;;;2.30;0.70;;;20.40;56.00;;;19.59;100.00;99160.97;5025573;28;20571;-60
2021/05/16 11:08:16;;;;;;;1.70;0.70;;;20.70;56.20;;;19.50;100.00;99148.88;5026074;28;21035;-60
2021/05/16 11:11:40;;;;;;;1.73;0.75;;;21.20;52.90;;;19.65;100.00;99151.88;5027572;28;20573;-60
2021/05/16 11:14:53;;;;;;;1.83;0.70;;;21.50;51.70;;;20.00;100.00;99154.38;5024864;28;20252;-60
2021/05/16 11:18:10;;;;;;;2.00;0.60;;;21.80;51.60;;;19.56;100.00;99141.66;5024133;28;20985;-60
2021/05/16 11:21:23;;;;;;;5.05;2.25;;;21.90;50.60;;;19.28;100.00;99132.44;5026121;28;20360;-60
2021/05/16 11:25:00;;;;;;;2.15;1.00;;;21.70;50.80;;;19.48;100.00;99129.28;5022320;28;20228;-60
2021/05/16 11:28:16;;;;;;;3.33;0.88;;;21.30;50.40;;;20.14;100.00;99137.75;5021279;28;20511;-60
2021/05/16 11:31:30;;;;;;;1.63;0.70;;;21.40;51.10;;;19.67;100.00;99136.16;5026475;28;20313;-60
2021/05/16 11:34:42;;;;;;;2.25;0.90;;;21.60;50.10;;;19.38;100.00;99129.09;5026762;28;20267;-60
2021/05/16 11:38:32;;;;;;;1.85;0.90;;;21.70;49.60;;;19.72;100.00;99127.28;5025078;28;20550;-60
2021/05/16 11:42:10;;;;;;;1.65;0.88;;;21.60;49.60;;;18.97;100.00;99125.59;5025593;28;20210;-60
2021/05/16 11:45:26;;;;;;;3.28;0.85;;;21.50;48.30;;;18.45;100.00;99132.03;5013317;28;20985;-60
2021/05/16 11:48:50;;;;;;;1.73;0.90;;;20.90;47.60;;;18.51;100.00;99126.50;5024173;28;20222;-58
2021/05/16 11:52:12;;;;;;;2.97;1.02;;;20.30;49.30;;;18.71;100.00;99130.72;5020691;28;20341;-60
2021/05/16 11:55:29;;;;;;;2.88;1.45;;;19.90;51.00;;;19.25;100.00;99113.94;5026556;28;20376;-59
2021/05/16 11:58:54;;;;;;;3.95;1.02;;;20.00;52.30;;;19.80;100.00;99117.91;5026471;28;20645;-60
2021/05/16 12:02:11;;;;;;;0.90;0.63;;;20.40;52.00;;;19.50;100.00;99110.06;5026162;28;20224;-60
2021/05/16 12:05:30;;;;;;;2.10;1.00;;;20.90;50.30;;;19.46;100.00;99104.28;5025785;28;20695;-60
2021/05/16 12:09:10;;;;;;;3.28;1.10;;;21.00;50.50;;;19.16;100.00;99101.03;5026792;28;20536;-60
2021/05/16 12:12:27;;;;;;;3.22;0.90;;;21.00;50.40;;;19.17;100.00;99099.94;4947692;28;20348;-59
2021/05/16 12:15:41;;;;;;;1.67;0.77;;;20.90;50.60;;;19.93;100.00;99099.41;5026387;28;20251;-59
2021/05/16 12:19:28;;;;;;;2.13;0.88;;;21.10;50.40;;;21.21;100.00;99089.19;5026243;28;20226;-59
2021/05/16 12:22:59;;;;;;;4.18;1.00;;;21.70;50.80;;;21.42;100.00;99082.03;5003533;28;20699;-59
2021/05/16 12:26:10;;;;;;;2.15;0.80;;;22.30;48.40;;;20.54;100.00;99066.88;4998405;28;20245;-61
2021/05/16 12:29:23;;;;;;;1.85;0.70;;;22.80;43.90;;;20.82;100.00;99093.06;5025953;28;20578;-59
2021/05/16 12:32:40;;;;;;;1.55;0.75;;;22.90;44.50;;;20.27;100.00;99075.75;5025423;28;20222;-58
2021/05/16 12:36:04;;;;;;;1.90;0.80;;;22.70;44.50;;;19.52;100.00;99069.97;5022295;28;20264;-59
2021/05/16 12:39:25;;;;;;;3.28;1.05;;;22.20;44.30;;;19.67;100.00;99090.03;5022305;28;20723;-59
2021/05/16 12:43:18;;;;;;;3.45;1.17;;;21.60;45.50;;;19.26;100.00;99085.75;5021437;28;20621;-59
2021/05/16 12:46:35;;;;;;;3.97;1.00;;;21.20;46.40;;;19.81;100.00;99078.84;5003385;28;20234;-59
2021/05/16 12:49:48;;;;;;;2.15;1.00;;;20.70;48.40;;;19.97;100.00;99081.56;5020226;28;20372;-59
2021/05/16 12:53:00;;;;;;;1.75;0.70;;;20.60;49.80;;;20.15;100.00;99074.22;5025760;28;20528;-59
2021/05/16 12:56:29;;;;;;;3.00;1.08;;;20.90;49.00;;;20.25;100.00;99072.47;5025025;28;20353;-59
2021/05/16 13:00:01;;;;;;;3.17;0.93;;;21.10;49.00;;;20.45;100.00;99074.66;5022960;28;20226;-59
2021/05/16 13:07:04;;;;;;;1.70;0.75;;;21.60;48.30;;;20.12;100.00;99070.09;5019136;28;20579;-59
2021/05/16 13:10:50;;;;;;;2.58;0.90;;;21.50;47.50;;;20.24;100.00;99075.44;5025026;28;20547;-60
2021/05/16 13:14:04;;;;;;;3.13;1.20;;;21.60;47.80;;;19.54;100.00;99071.34;4978429;28;20636;-59
2021/05/16 13:20:48;;;;;;;2.38;1.23;;;21.10;47.60;;;19.40;100.00;99069.19;4998233;28;20601;-59
2021/05/16 13:24:14;;;;;;;3.97;1.10;;;20.80;48.30;;;19.52;100.00;99070.78;5020927;28;20237;-59
2021/05/16 13:31:05;;;;;;;2.25;1.15;;;20.40;49.70;;;20.10;100.00;99061.38;5006424;28;20538;-59
2021/05/16 13:34:24;;;;;;;4.00;1.30;;;20.40;49.80;;;20.60;100.00;99058.56;5024100;28;20210;-59
2021/05/16 13:41:26;;;;;;;2.85;1.10;;;21.00;48.40;;;20.10;100.00;99045.09;5022794;28;20264;-58
2021/05/16 13:44:37;;;;;;;3.35;1.10;;;21.20;48.40;;;20.64;100.00;99037.13;5024614;28;20493;-60
2021/05/16 13:47:49;;;;;;;3.15;1.27;;;21.40;48.70;;;20.54;100.00;99032.38;5021352;28;20311;-60
2021/05/16 13:51:00;;;;;;;2.85;0.90;;;21.70;48.20;;;20.18;100.00;99030.25;5023473;28;20726;-59
2021/05/16 13:54:22;;;;;;;3.80;0.82;;;21.80;47.30;;;19.43;100.00;99028.81;5004579;28;20550;-59
2021/05/16 13:57:45;;;;;;;2.53;1.08;;;21.60;46.60;;;19.72;100.00;99030.41;5023545;28;20690;-59
2021/05/16 14:08:37;;;;;;;3.15;1.08;;;20.40;50.10;;;19.57;100.00;99022.03;5023214;28;21085;-58
2021/05/16 14:23:04;;;;;;;1.30;0.60;;;20.90;45.90;;;20.74;86.78;99004.63;4925955;28;20229;-60
2021/05/16 14:26:17;;;;;;;2.30;0.65;;;21.10;45.40;;;21.02;93.86;98993.50;5019489;28;20213;-60
2021/05/16 14:29:43;;;;;;;2.33;1.23;;;21.20;45.70;;;21.02;97.77;98998.94;5026773;28;20253;-60
2021/05/16 14:33:06;;;;;;;2.25;0.68;;;21.30;46.20;;;20.50;97.43;98993.22;5024816;28;20222;-59
2021/05/16 14:36:17;;;;;;;2.45;0.80;;;21.40;45.40;;;21.08;98.24;98986.22;5022771;28;20263;-59
2021/05/16 14:39:46;;;;;;;1.63;0.60;;;21.40;46.00;;;21.21;91.51;98996.69;5027598;28;20503;-60
2021/05/16 14:43:04;;;;;;;2.10;0.90;;;21.40;45.50;;;21.46;88.15;98986.03;5026354;28;20217;-60
2021/05/16 14:46:27;;;;;;;1.35;0.60;;;21.60;46.00;;;21.28;93.92;98982.88;5024751;28;20265;-60
2021/05/16 14:49:38;;;;;;;1.45;0.40;;;21.70;45.20;;;21.25;93.07;98983.41;5020884;28;20589;-59
2021/05/16 14:52:50;;;;;;;1.75;0.63;;;21.80;44.90;;;20.45;98.33;98979.56;5021947;28;20689;-58
2021/05/16 14:56:07;;;;;;;0.98;0.70;;;21.70;44.50;;;21.29;100.00;98979.06;5025587;28;20322;-60
2021/05/16 14:59:35;;;;;;;1.95;0.40;;;21.60;46.00;;;20.64;98.25;98972.72;5022957;28;20466;-59
2021/05/16 15:02:46;;;;;;;1.70;0.70;;;21.60;45.60;;;21.02;100.00;98973.63;5027294;28;20474;-59
2021/05/16 15:06:03;;;;;;;1.02;0.60;;;21.50;45.90;;;20.37;100.00;98969.97;5024525;28;20542;-59
2021/05/16 15:09:39;;;;;;;1.20;0.60;;;21.40;46.30;;;19.63;100.00;98969.50;5027269;28;20365;-59
2021/05/16 15:12:56;;;;;;;1.50;0.70;;;21.20;45.30;;;19.83;100.00;98968.13;5027363;28;20728;-56
2021/05/16 15:16:08;;;;;;;2.72;0.77;;;20.80;46.80;;;19.85;100.00;98980.38;5024498;28;20222;-58
2021/05/16 15:19:25;;;;;;;1.40;0.60;;;20.40;47.50;;;19.79;100.00;98972.41;5026938;28;20667;-58
2021/05/16 15:22:48;;;;;;;1.85;0.80;;;20.10;48.10;;;19.90;100.00;98966.91;5026839;28;20237;-59
2021/05/16 15:25:59;;;;;;;2.25;0.77;;;19.90;49.10;;;19.80;100.00;98968.63;5022980;28;20954;-58
2021/05/16 15:29:11;;;;;;;1.20;0.50;;;19.80;50.00;;;19.67;100.00;98965.19;5027173;28;20524;-58
2021/05/16 15:32:29;;;;;;;2.83;0.93;;;19.70;50.70;;;19.57;100.00;98966.94;5021430;28;20343;-57
2021/05/16 15:35:40;;;;;;;4.15;2.00;;;19.60;51.20;;;19.43;100.00;98957.47;5018877;28;21031;-57
2021/05/16 15:38:52;;;;;;;1.00;0.60;;;19.50;51.70;;;19.17;100.00;98959.75;5024396;28;20522;-59
2021/05/16 15:42:03;;;;;;;4.53;2.10;;;19.30;53.40;;;19.05;100.00;98959.00;5024413;28;21061;-59
2021/05/16 15:45:15;;;;;;;1.63;0.90;;;19.10;54.60;;;18.99;100.00;98949.16;5021399;28;20466;-60
2021/05/16 15:48:29;;;;;;;2.13;0.90;;;18.80;55.10;;;18.88;100.00;98958.19;5024935;28;20559;-58
2021/05/16 15:51:40;;;;;;;2.95;0.93;;;18.60;55.20;;;18.81;100.00;98947.47;5024909;28;20653;-59
2021/05/16 15:54:51;;;;;;;1.98;0.90;;;18.40;55.70;;;18.87;100.00;98957.34;5025734;28;20504;-58
2021/05/16 15:58:03;;;;;;;2.45;1.42;;;18.30;55.80;;;18.97;100.00;98943.16;5027859;28;20533;-58
2021/05/16 16:01:37;;;;;;;2.25;1.10;;;18.30;56.10;;;19.02;100.00;98935.13;5026021;28;20237;-58
2021/05/16 16:05:23;;;;;;;2.03;0.82;;;18.30;56.20;;;19.35;100.00;98945.13;5022430;28;20233;-58
2021/05/16 16:08:33;;;;;;;3.05;0.90;;;18.40;56.60;;;19.25;100.00;98937.66;4959275;28;20627;-56
2021/05/16 16:11:44;;;;;;;2.17;0.70;;;18.50;57.00;;;19.14;100.00;98943.19;4966048;28;20485;-59
2021/05/16 16:14:56;;;;;;;2.05;1.08;;;18.60;57.20;;;19.20;100.00;98950.31;5022940;28;20571;-60
2021/05/16 16:21:25;;;;;;;2.95;0.93;;;18.70;58.00;;;18.77;100.00;98946.34;5026489;28;21067;-58
2021/05/16 16:24:36;;;;;;;1.70;0.70;;;18.80;58.40;;;18.49;100.00;98941.72;5023483;28;20485;-59
2021/05/16 16:28:21;;;;;;;2.92;0.90;;;18.70;58.30;;;18.37;100.00;98940.94;5023874;28;20223;-59
2021/05/16 16:31:46;;;;;;;0.73;0.55;;;18.60;58.90;;;17.81;100.00;98931.66;4988574;28;20354;-59
2021/05/16 16:34:59;;;;;;;1.13;0.50;;;18.50;59.70;;;17.77;100.00;98941.31;5026304;28;20257;-58
2021/05/16 16:38:23;;;;;;;1.08;0.50;;;18.40;60.20;;;17.63;100.00;98945.34;5026253;28;20513;-58
2021/05/16 16:41:34;;;;;;;3.72;0.60;;;18.30;60.80;;;17.62;100.00;98949.06;5026001;28;20447;-59
2021/05/16 16:44:45;;;;;;;1.23;0.57;;;18.10;67.30;;;17.46;100.00;98939.78;5020500;28;20530;-58
2021/05/16 16:48:35;;;;;;;0.68;0.47;;;17.90;71.90;;;17.22;100.00;98928.13;5025485;28;20492;-59
2021/05/16 16:51:46;;;;;;;1.17;0.47;;;17.70;75.10;;;17.24;100.00;98934.13;4951473;28;20274;-57
2021/05/16 16:54:58;;;;;;;1.27;0.50;;;17.40;77.50;;;17.19;100.00;98942.09;5020608;28;20218;-58
2021/05/16 16:58:10;;;;;;;1.35;0.40;;;17.30;79.00;;;17.73;100.00;98936.63;5025132;28;20213;-59
2021/05/16 17:01:21;;;;;;;1.83;0.40;;;17.20;80.20;;;17.80;100.00;98929.22;5020974;28;20440;-58
2021/05/16 17:04:33;;;;;;;1.30;0.35;;;17.20;81.40;;;17.94;100.00;98936.00;5025495;28;20554;-59
2021/05/16 17:11:51;;;;;;;0.68;0.40;;;17.20;79.90;;;17.78;100.00;98942.97;5023235;28;20499;-59
2021/05/16 17:18:41;;;;;;;1.00;0.32;;;17.30;76.80;;;17.76;100.00;98939.69;4978193;28;100139;-59
2021/05/16 17:21:53;;;;;;;0.32;0.25;;;17.30;78.10;;;18.21;100.00;98934.41;4990179;27;99841;-59
2021/05/16 17:25:16;;;;;;;0.65;0.40;;;17.40;77.80;;;18.34;100.00;98930.59;5030115;27;66432;-58
2021/05/16 17:28:27;;;;;;;0.52;0.30;;;17.50;77.80;;;18.46;100.00;98935.97;5038912;27;47724;-59
2021/05/16 17:31:40;;;;;;;0.68;0.38;;;17.50;76.60;;;18.73;100.00;98931.63;5043145;27;39635;-59
2021/05/16 17:34:51;;;;;;;1.08;0.32;;;17.60;75.90;;;18.91;100.00;98930.59;5044438;27;48327;-59
2021/05/16 17:38:03;;;;;;;1.25;0.32;;;17.80;76.40;;;19.13;100.00;98939.66;5047568;27;37220;-59
2021/05/16 17:41:16;;;;;;;1.25;0.25;;;17.90;75.00;;;18.79;100.00;98932.56;5053603;27;34742;-59